Time;durP1;ratioP1;P1;durP2;ratioP2;P2;SDS_P1;SDS_P2;PMS_P1;PMS_P2;Temp;Humidity;BMP_temperature;BMP_pressure;BME280_temperature;BME280_humidity;BME280_pressure;Samples;Min_cycle;Max_cycle;Signal;HPM_P1;HPM_P2
2022/04/20 00:00:20;;;;;;;;;;;19.80;38.40;;;;;;4948009;29;20121;-77
2022/04/20 00:02:46;;;;;;;;;;;19.80;38.40;;;;;;4940497;29;19915;-77
2022/04/20 00:05:12;;;;;;;;;;;19.80;38.30;;;;;;4948819;28;20293;-76
2022/04/20 00:07:38;;;;;;;;;;;19.80;38.30;;;;;;4949239;29;20014;-77
2022/04/20 00:10:04;;;;;;;;;;;19.80;38.40;;;;;;4947326;29;20267;-74
2022/04/20 00:12:29;;;;;;;;;;;19.80;38.30;;;;;;4940233;29;19949;-77
2022/04/20 00:14:55;;;;;;;;;;;19.80;38.50;;;;;;4948748;28;19918;-75
2022/04/20 00:17:20;;;;;;;;;;;19.80;38.50;;;;;;4940151;29;20026;-77
2022/04/20 00:19:45;;;;;;;;;;;19.80;38.40;;;;;;4949579;28;19919;-77
2022/04/20 00:22:11;;;;;;;;;;;19.80;38.50;;;;;;4951584;28;19919;-76
2022/04/20 00:24:36;;;;;;;;;;;19.80;38.50;;;;;;4949535;28;19918;-77
2022/04/20 00:27:02;;;;;;;;;;;19.80;38.40;;;;;;4941176;29;20393;-77
2022/04/20 00:29:27;;;;;;;;;;;19.70;38.90;;;;;;4940422;29;19915;-76
2022/04/20 00:31:53;;;;;;;;;;;19.80;38.60;;;;;;4943298;28;19925;-77
2022/04/20 00:34:18;;;;;;;;;;;19.70;38.80;;;;;;4942406;28;19918;-77
2022/04/20 00:36:44;;;;;;;;;;;19.70;38.90;;;;;;4948268;29;19989;-77
2022/04/20 00:39:09;;;;;;;;;;;19.70;38.80;;;;;;4941558;29;19977;-76
2022/04/20 00:41:35;;;;;;;;;;;19.70;39.10;;;;;;4940441;28;20019;-77
2022/04/20 00:44:01;;;;;;;;;;;19.80;38.80;;;;;;4939441;29;19919;-77
2022/04/20 00:46:28;;;;;;;;;;;19.70;38.80;;;;;;4946309;29;19915;-77
2022/04/20 00:48:53;;;;;;;;;;;19.70;39.00;;;;;;4952210;28;19957;-77
2022/04/20 00:51:19;;;;;;;;;;;19.70;39.10;;;;;;4950066;28;19996;-77
2022/04/20 00:53:45;;;;;;;;;;;19.70;39.10;;;;;;4952483;28;19918;-77
2022/04/20 00:56:10;;;;;;;;;;;19.60;39.20;;;;;;4947967;28;19923;-76
2022/04/20 00:58:37;;;;;;;;;;;19.70;39.30;;;;;;4944555;28;19996;-76
2022/04/20 01:01:03;;;;;;;;;;;19.70;39.50;;;;;;4946485;28;19915;-77
2022/04/20 01:03:29;;;;;;;;;;;19.70;39.80;;;;;;4943634;28;19926;-77
2022/04/20 01:05:54;;;;;;;;;;;19.70;39.70;;;;;;4945949;28;20259;-76
2022/04/20 01:08:20;;;;;;;;;;;19.70;39.90;;;;;;4950304;28;19918;-76
2022/04/20 01:10:45;;;;;;;;;;;19.70;40.40;;;;;;4940910;28;19990;-77
2022/04/20 01:13:11;;;;;;;;;;;19.70;39.90;;;;;;4942652;28;19984;-77
2022/04/20 01:15:36;;;;;;;;;;;19.70;40.10;;;;;;4952458;28;19914;-74
2022/04/20 01:18:14;;;;;;;;;;;19.70;40.10;;;;;;4960731;28;19914;-77
2022/04/20 01:20:40;;;;;;;;;;;19.70;40.00;;;;;;4943710;28;19919;-77
2022/04/20 01:23:05;;;;;;;;;;;19.70;40.00;;;;;;4951226;28;19972;-77
2022/04/20 01:25:31;;;;;;;;;;;19.70;40.10;;;;;;4952051;28;20415;-77
2022/04/20 01:27:56;;;;;;;;;;;19.70;40.20;;;;;;4949875;28;20021;-77
2022/04/20 01:30:22;;;;;;;;;;;19.70;40.60;;;;;;4941830;29;19922;-77
2022/04/20 01:32:47;;;;;;;;;;;19.70;40.50;;;;;;4946165;28;19919;-77
2022/04/20 01:35:13;;;;;;;;;;;19.70;40.50;;;;;;4940193;29;19918;-76
2022/04/20 01:37:38;;;;;;;;;;;19.70;40.50;;;;;;4953050;28;20425;-77
2022/04/20 01:40:05;;;;;;;;;;;19.60;40.40;;;;;;4944142;29;19915;-77
2022/04/20 01:42:32;;;;;;;;;;;19.60;40.50;;;;;;4941643;28;19914;-78
2022/04/20 01:44:58;;;;;;;;;;;19.60;40.70;;;;;;4945229;28;20026;-76
2022/04/20 01:47:26;;;;;;;;;;;19.60;40.80;;;;;;4940231;29;20297;-76
2022/04/20 01:49:52;;;;;;;;;;;19.60;40.60;;;;;;4946328;28;19926;-76
2022/04/20 01:52:17;;;;;;;;;;;19.60;40.90;;;;;;4939783;28;19923;-77
2022/04/20 01:54:42;;;;;;;;;;;19.60;40.60;;;;;;4961445;28;19913;-77
2022/04/20 01:57:08;;;;;;;;;;;19.60;40.80;;;;;;4974641;28;20450;-76
2022/04/20 01:59:33;;;;;;;;;;;19.60;40.50;;;;;;4948627;28;19921;-75
2022/04/20 02:04:43;;;;;;;;;;;19.60;40.40;;;;;;4950348;29;19984;-75
2022/04/20 02:07:09;;;;;;;;;;;19.60;40.30;;;;;;4946426;28;20375;-74
2022/04/20 02:09:34;;;;;;;;;;;19.60;40.20;;;;;;4948356;29;20412;-74
2022/04/20 02:12:00;;;;;;;;;;;19.60;40.20;;;;;;4939139;29;19964;-74
2022/04/20 02:14:26;;;;;;;;;;;19.60;40.20;;;;;;4942526;28;19922;-75
2022/04/20 02:16:52;;;;;;;;;;;19.60;40.10;;;;;;4942009;28;19961;-74
2022/04/20 02:19:18;;;;;;;;;;;19.60;40.00;;;;;;4941909;28;20016;-75
2022/04/20 02:21:43;;;;;;;;;;;19.60;40.20;;;;;;4939280;28;19911;-75
2022/04/20 02:24:10;;;;;;;;;;;19.60;40.20;;;;;;4949301;28;20339;-74
2022/04/20 02:26:35;;;;;;;;;;;19.50;39.90;;;;;;4935503;28;20421;-75
2022/04/20 02:29:01;;;;;;;;;;;19.50;39.90;;;;;;4974087;28;20004;-75
2022/04/20 02:31:27;;;;;;;;;;;19.50;39.90;;;;;;4942199;29;20021;-74
2022/04/20 02:33:52;;;;;;;;;;;19.50;39.90;;;;;;4950182;28;19915;-75
2022/04/20 02:36:18;;;;;;;;;;;19.50;39.80;;;;;;4941238;28;19922;-75
2022/04/20 02:38:43;;;;;;;;;;;19.50;40.10;;;;;;4960265;28;19911;-77
2022/04/20 02:41:09;;;;;;;;;;;19.50;40.00;;;;;;4942019;28;19915;-76
2022/04/20 02:43:35;;;;;;;;;;;19.50;39.90;;;;;;4948782;28;19915;-75
2022/04/20 02:46:00;;;;;;;;;;;19.50;39.90;;;;;;4949567;28;19963;-77
2022/04/20 02:48:26;;;;;;;;;;;19.50;39.70;;;;;;4935742;28;20009;-77
2022/04/20 02:50:51;;;;;;;;;;;19.50;40.00;;;;;;4940559;28;19918;-76
2022/04/20 02:53:17;;;;;;;;;;;19.50;40.20;;;;;;4941407;28;20370;-76
2022/04/20 02:55:42;;;;;;;;;;;19.50;40.10;;;;;;4939041;28;20002;-75
2022/04/20 02:58:08;;;;;;;;;;;19.50;40.10;;;;;;4943494;28;20363;-75
2022/04/20 03:00:33;;;;;;;;;;;19.50;40.20;;;;;;4943402;29;19918;-75
2022/04/20 03:02:59;;;;;;;;;;;19.50;40.20;;;;;;4947874;28;19915;-76
2022/04/20 03:05:24;;;;;;;;;;;19.50;40.40;;;;;;4941248;29;20526;-76
2022/04/20 03:07:51;;;;;;;;;;;19.50;40.20;;;;;;4938477;29;19914;-76
2022/04/20 03:10:16;;;;;;;;;;;19.40;40.10;;;;;;4944467;28;19915;-76
2022/04/20 03:12:42;;;;;;;;;;;19.50;40.20;;;;;;4944548;28;19941;-75
2022/04/20 03:15:08;;;;;;;;;;;19.40;40.10;;;;;;4946258;29;19914;-76
2022/04/20 03:17:33;;;;;;;;;;;19.40;40.10;;;;;;4941127;28;20200;-76
2022/04/20 03:19:59;;;;;;;;;;;19.40;40.00;;;;;;4940702;28;19980;-75
2022/04/20 03:22:24;;;;;;;;;;;19.40;40.10;;;;;;4944036;28;20040;-76
2022/04/20 03:24:50;;;;;;;;;;;19.40;40.20;;;;;;4942076;29;20309;-77
2022/04/20 03:27:15;;;;;;;;;;;19.40;40.10;;;;;;4942843;28;19923;-77
2022/04/20 03:29:41;;;;;;;;;;;19.40;40.10;;;;;;4940806;28;19922;-76
2022/04/20 03:32:10;;;;;;;;;;;19.40;40.30;;;;;;4942943;28;19969;-76
2022/04/20 03:34:36;;;;;;;;;;;19.40;41.00;;;;;;4939024;29;20012;-73
2022/04/20 03:37:03;;;;;;;;;;;19.50;42.60;;;;;;4941242;28;20029;-75
2022/04/20 03:39:29;;;;;;;;;;;19.50;42.40;;;;;;4942982;28;19925;-75
2022/04/20 03:41:54;;;;;;;;;;;19.50;42.60;;;;;;4940544;28;20018;-75
2022/04/20 03:44:20;;;;;;;;;;;19.50;41.90;;;;;;4958488;28;19922;-74
2022/04/20 03:46:45;;;;;;;;;;;19.50;42.20;;;;;;4973503;28;19946;-75
2022/04/20 03:49:11;;;;;;;;;;;19.40;41.90;;;;;;4948060;28;19914;-74
2022/04/20 03:51:37;;;;;;;;;;;19.40;41.80;;;;;;4938387;28;19922;-76
2022/04/20 03:54:02;;;;;;;;;;;19.40;41.60;;;;;;4943871;28;19957;-76
2022/04/20 03:57:03;;;;;;;;;;;19.40;41.50;;;;;;4951535;29;20013;-75
2022/04/20 03:59:13;;;;;;;;;;;19.40;41.30;;;;;;4952214;28;20259;-74
2022/04/20 04:01:39;;;;;;;;;;;19.40;41.90;;;;;;4947641;28;19914;-76
2022/04/20 04:04:05;;;;;;;;;;;19.40;42.00;;;;;;4940619;28;20377;-75
2022/04/20 04:06:30;;;;;;;;;;;19.40;41.80;;;;;;4948309;29;20290;-76
2022/04/20 04:08:56;;;;;;;;;;;19.40;41.70;;;;;;4946413;29;19976;-76
2022/04/20 04:11:21;;;;;;;;;;;19.40;41.40;;;;;;4955158;28;20403;-75
2022/04/20 04:13:47;;;;;;;;;;;19.40;41.50;;;;;;4936839;29;19914;-75
2022/04/20 04:16:12;;;;;;;;;;;19.40;41.60;;;;;;4941554;28;19923;-75
2022/04/20 04:18:38;;;;;;;;;;;19.30;41.80;;;;;;4947911;28;20400;-75
2022/04/20 04:21:03;;;;;;;;;;;19.40;41.60;;;;;;4967789;28;19911;-75
2022/04/20 04:23:29;;;;;;;;;;;19.30;41.20;;;;;;4952993;28;19918;-76
2022/04/20 04:25:54;;;;;;;;;;;19.30;41.70;;;;;;4947742;28;19915;-76
2022/04/20 04:28:20;;;;;;;;;;;19.30;41.60;;;;;;4955655;28;19923;-74
2022/04/20 04:30:45;;;;;;;;;;;19.40;41.60;;;;;;4989642;28;20410;-76
2022/04/20 04:33:11;;;;;;;;;;;19.00;41.20;;;;;;4955930;28;20433;-76
2022/04/20 04:35:36;;;;;;;;;;;19.30;41.60;;;;;;4952760;28;19910;-74
2022/04/20 04:38:02;;;;;;;;;;;19.30;41.40;;;;;;4947150;28;20439;-74
2022/04/20 04:40:27;;;;;;;;;;;19.30;41.40;;;;;;4950799;28;19915;-77
2022/04/20 04:42:53;;;;;;;;;;;19.30;41.40;;;;;;4947154;28;20316;-77
2022/04/20 04:48:48;;;;;;;;;;;19.40;41.30;;;;;;4933983;29;20000;-76
2022/04/20 04:50:51;;;;;;;;;;;19.40;41.70;;;;;;4937730;28;19918;-76
2022/04/20 04:53:17;;;;;;;;;;;19.40;41.30;;;;;;4933643;29;19915;-76
2022/04/20 04:55:42;;;;;;;;;;;19.40;41.40;;;;;;4933527;28;19965;-77
2022/04/20 04:58:08;;;;;;;;;;;19.40;41.00;;;;;;4935462;28;20151;-76
2022/04/20 05:00:33;;;;;;;;;;;19.30;41.40;;;;;;4952482;28;19921;-76
2022/04/20 05:02:59;;;;;;;;;;;19.40;41.30;;;;;;4952364;28;19918;-75
2022/04/20 05:05:24;;;;;;;;;;;19.40;41.40;;;;;;4951491;28;19906;-76
2022/04/20 05:07:54;;;;;;;;;;;19.30;41.40;;;;;;4949979;28;19964;-76
2022/04/20 05:10:22;;;;;;;;;;;19.30;41.20;;;;;;4950898;28;19994;-76
2022/04/20 05:12:48;;;;;;;;;;;19.30;41.80;;;;;;4951083;28;20009;-76
2022/04/20 05:15:13;;;;;;;;;;;19.30;41.60;;;;;;4949691;28;20014;-76
2022/04/20 05:17:39;;;;;;;;;;;19.40;41.90;;;;;;4946339;28;20690;-75
2022/04/20 05:20:05;;;;;;;;;;;19.40;41.90;;;;;;4965257;28;19914;-76
2022/04/20 05:22:30;;;;;;;;;;;19.40;41.60;;;;;;4959713;28;19918;-74
2022/04/20 05:24:56;;;;;;;;;;;19.50;41.20;;;;;;4962500;28;19944;-76
2022/04/20 05:27:22;;;;;;;;;;;19.50;41.10;;;;;;5036947;28;19916;-76
2022/04/20 05:29:47;;;;;;;;;;;19.50;41.60;;;;;;5020712;28;20001;-76
2022/04/20 05:32:13;;;;;;;;;;;19.50;40.30;;;;;;4974957;28;19924;-75
2022/04/20 05:34:38;;;;;;;;;;;19.60;40.30;;;;;;4993585;28;19911;-76
2022/04/20 05:42:32;;;;;;;;;;;19.70;40.00;;;;;;4977274;28;19962;-76
2022/04/20 05:44:58;;;;;;;;;;;19.80;40.60;;;;;;5052717;28;19948;-75
2022/04/20 05:47:23;;;;;;;;;;;19.80;39.60;;;;;;4976300;28;20326;-76
2022/04/20 05:49:49;;;;;;;;;;;19.90;40.40;;;;;;4990842;28;19911;-75
2022/04/20 05:52:14;;;;;;;;;;;19.90;40.20;;;;;;4951425;28;19919;-75
2022/04/20 05:54:39;;;;;;;;;;;20.00;40.60;;;;;;4954524;28;19919;-76
2022/04/20 05:57:05;;;;;;;;;;;20.00;40.70;;;;;;4946578;28;19925;-75
2022/04/20 05:59:31;;;;;;;;;;;20.10;40.90;;;;;;4932332;28;19917;-75
2022/04/20 06:01:56;;;;;;;;;;;20.20;41.10;;;;;;4932637;28;20286;-75
2022/04/20 06:04:23;;;;;;;;;;;20.20;41.70;;;;;;4932646;29;19911;-77
2022/04/20 06:06:49;;;;;;;;;;;20.30;41.00;;;;;;4932005;28;19918;-76
2022/04/20 06:09:14;;;;;;;;;;;20.30;41.20;;;;;;4932254;29;19911;-78
2022/04/20 06:11:40;;;;;;;;;;;20.80;42.00;;;;;;4933776;28;19958;-84
2022/04/20 06:14:06;;;;;;;;;;;22.00;41.80;;;;;;4933542;28;19915;-82
2022/04/20 06:16:31;;;;;;;;;;;22.70;39.60;;;;;;4931590;28;19918;-81
2022/04/20 06:18:57;;;;;;;;;;;24.10;36.90;;;;;;4931376;28;20001;-81
2022/04/20 06:21:22;;;;;;;;;;;24.70;36.30;;;;;;4931448;28;19922;-82
2022/04/20 06:23:48;;;;;;;;;;;25.00;35.60;;;;;;4932510;28;20422;-82
2022/04/20 06:26:13;;;;;;;;;;;25.40;35.10;;;;;;4932308;28;19922;-81
2022/04/20 06:28:39;;;;;;;;;;;25.60;34.90;;;;;;4930818;28;19989;-82
2022/04/20 06:31:05;;;;;;;;;;;25.80;34.60;;;;;;4930675;28;20355;-82
2022/04/20 06:33:30;;;;;;;;;;;25.90;34.20;;;;;;4930795;28;19949;-81
2022/04/20 06:35:57;;;;;;;;;;;26.10;34.20;;;;;;4930866;28;19954;-80
2022/04/20 06:38:22;;;;;;;;;;;26.30;34.00;;;;;;4932067;28;19911;-82
2022/04/20 06:40:48;;;;;;;;;;;26.40;33.40;;;;;;4932139;28;19918;-81
2022/04/20 06:43:14;;;;;;;;;;;26.60;32.90;;;;;;4932287;28;20333;-80
2022/04/20 06:45:40;;;;;;;;;;;26.70;32.90;;;;;;4930970;28;20005;-82
2022/04/20 06:48:05;;;;;;;;;;;26.90;32.50;;;;;;4930891;28;19962;-82
2022/04/20 06:50:31;;;;;;;;;;;27.00;32.40;;;;;;4930854;28;19911;-82
2022/04/20 06:58:38;;;;;;;;;;;27.40;31.50;;;;;;4932362;28;19918;-81
2022/04/20 07:01:04;;;;;;;;;;;27.70;31.00;;;;;;4932287;28;19915;-82
2022/04/20 07:03:31;;;;;;;;;;;27.80;30.70;;;;;;4932273;28;19915;-81
2022/04/20 07:05:56;;;;;;;;;;;28.00;30.90;;;;;;4931834;28;20291;-81
2022/04/20 07:08:22;;;;;;;;;;;28.00;30.70;;;;;;4932852;28;19907;-81
2022/04/20 07:10:48;;;;;;;;;;;28.10;30.40;;;;;;4930758;28;19911;-83
2022/04/20 07:13:14;;;;;;;;;;;28.20;30.40;;;;;;4932617;28;19919;-81
2022/04/20 07:15:39;;;;;;;;;;;28.30;30.50;;;;;;4933007;28;19921;-81
2022/04/20 07:18:08;;;;;;;;;;;28.40;30.40;;;;;;4933253;28;19911;-80
2022/04/20 07:20:33;;;;;;;;;;;28.50;30.00;;;;;;4933382;28;19919;-79
2022/04/20 07:22:59;;;;;;;;;;;28.40;29.70;;;;;;4932214;28;19915;-80
2022/04/20 07:25:25;;;;;;;;;;;28.40;29.90;;;;;;4932802;28;20005;-80
2022/04/20 07:27:51;;;;;;;;;;;28.30;30.10;;;;;;4933138;28;20378;-79
2022/04/20 07:30:17;;;;;;;;;;;28.20;30.00;;;;;;4930703;28;19946;-81
2022/04/20 07:32:42;;;;;;;;;;;28.20;30.00;;;;;;4933010;28;20379;-80
2022/04/20 07:35:08;;;;;;;;;;;28.30;30.10;;;;;;4932756;28;19918;-80
2022/04/20 07:37:34;;;;;;;;;;;28.20;30.00;;;;;;4933157;28;19919;-80
2022/04/20 07:39:59;;;;;;;;;;;28.20;30.20;;;;;;4932700;28;19911;-80
2022/04/20 07:42:25;;;;;;;;;;;28.40;29.90;;;;;;4933207;28;20003;-80
2022/04/20 07:44:54;;;;;;;;;;;28.50;29.90;;;;;;4932126;28;19911;-80
2022/04/20 07:47:22;;;;;;;;;;;28.60;29.90;;;;;;4932490;28;20463;-80
2022/04/20 07:52:36;;;;;;;;;;;28.90;29.40;;;;;;4933119;28;19926;-79
2022/04/20 07:55:01;;;;;;;;;;;29.00;29.30;;;;;;4933115;28;19915;-82
2022/04/20 07:57:27;;;;;;;;;;;29.20;28.20;;;;;;4990919;28;19913;-82
2022/04/20 07:59:52;;;;;;;;;;;29.10;27.60;;;;;;4945091;28;19911;-84
2022/04/20 08:02:20;;;;;;;;;;;29.30;27.50;;;;;;4946588;28;19919;-81
2022/04/20 08:04:46;;;;;;;;;;;29.20;27.50;;;;;;4939984;28;20361;-83
2022/04/20 08:07:12;;;;;;;;;;;29.50;27.30;;;;;;5000755;28;19963;-80
2022/04/20 08:09:37;;;;;;;;;;;29.60;26.00;;;;;;4960280;28;20005;-82
2022/04/20 08:12:03;;;;;;;;;;;29.70;26.00;;;;;;4932289;28;19961;-83
2022/04/20 08:14:28;;;;;;;;;;;30.10;25.10;;;;;;4931700;29;19919;-80
2022/04/20 08:16:54;;;;;;;;;;;29.90;25.10;;;;;;4932773;29;20302;-81
2022/04/20 08:19:19;;;;;;;;;;;30.00;24.80;;;;;;4931538;29;19915;-81
2022/04/20 08:21:45;;;;;;;;;;;30.40;25.40;;;;;;4964332;28;19965;-81
2022/04/20 08:24:10;;;;;;;;;;;30.50;24.60;;;;;;4951405;28;19910;-79
2022/04/20 08:26:36;;;;;;;;;;;30.60;23.90;;;;;;4951074;29;19914;-80
2022/04/20 08:29:01;;;;;;;;;;;30.80;23.80;;;;;;4950408;29;19914;-80
2022/04/20 08:31:27;;;;;;;;;;;30.70;23.10;;;;;;4961033;28;19960;-80
2022/04/20 08:33:52;;;;;;;;;;;30.60;23.70;;;;;;4946781;28;20291;-81
2022/04/20 08:36:18;;;;;;;;;;;30.90;23.50;;;;;;4983473;28;20037;-77
2022/04/20 08:38:44;;;;;;;;;;;31.00;23.20;;;;;;4991185;28;19968;-81
2022/04/20 08:41:10;;;;;;;;;;;31.20;22.90;;;;;;5028247;28;19913;-80
2022/04/20 08:43:39;;;;;;;;;;;31.40;22.40;;;;;;5055850;28;19944;-80
2022/04/20 08:46:05;;;;;;;;;;;31.60;23.00;;;;;;5055188;28;19963;-81
2022/04/20 08:48:31;;;;;;;;;;;31.70;23.00;;;;;;5054939;28;20323;-80
2022/04/20 08:50:56;;;;;;;;;;;31.70;22.70;;;;;;5056063;28;19951;-81
2022/04/20 08:53:22;;;;;;;;;;;31.80;22.30;;;;;;5055869;28;19913;-81
2022/04/20 08:55:47;;;;;;;;;;;31.80;22.50;;;;;;5035767;28;19913;-80
2022/04/20 08:58:14;;;;;;;;;;;31.90;22.20;;;;;;5012917;28;20389;-80
2022/04/20 09:00:39;;;;;;;;;;;32.20;22.30;;;;;;5054587;28;20005;-79
2022/04/20 09:03:05;;;;;;;;;;;32.20;22.30;;;;;;4970184;28;19982;-81
2022/04/20 09:05:33;;;;;;;;;;;32.20;22.10;;;;;;4957226;28;19916;-79
2022/04/20 09:08:06;;;;;;;;;;;32.20;22.00;;;;;;4956299;28;19914;-80
2022/04/20 09:10:32;;;;;;;;;;;32.10;21.60;;;;;;4963653;28;20370;-81
2022/04/20 09:13:02;;;;;;;;;;;32.20;21.60;;;;;;4972388;28;19921;-79
2022/04/20 09:15:28;;;;;;;;;;;32.00;21.10;;;;;;4951867;29;19915;-81
2022/04/20 09:17:55;;;;;;;;;;;32.10;21.10;;;;;;4961985;28;19914;-79
2022/04/20 09:20:21;;;;;;;;;;;32.30;21.30;;;;;;4972949;28;19914;-80
2022/04/20 09:23:00;;;;;;;;;;;32.40;20.60;;;;;;4979460;28;19917;-77
2022/04/20 09:25:29;;;;;;;;;;;32.20;21.10;;;;;;4980431;28;19945;-79
2022/04/20 09:27:55;;;;;;;;;;;32.40;21.30;;;;;;4979000;28;20370;-80
2022/04/20 09:30:20;;;;;;;;;;;32.30;21.20;;;;;;4974734;28;19917;-80
2022/04/20 09:32:47;;;;;;;;;;;32.40;20.20;;;;;;4959719;28;19922;-79
2022/04/20 09:35:16;;;;;;;;;;;32.60;20.90;;;;;;4959143;28;19945;-80
2022/04/20 09:37:42;;;;;;;;;;;32.40;20.30;;;;;;4966989;28;19937;-80
2022/04/20 09:40:11;;;;;;;;;;;32.50;20.50;;;;;;4969129;28;19914;-80
2022/04/20 09:43:06;;;;;;;;;;;32.50;20.30;;;;;;4961161;28;19918;-79
2022/04/20 09:45:33;;;;;;;;;;;32.60;20.40;;;;;;4962638;29;19970;-80
2022/04/20 09:51:05;;;;;;;;;;;32.70;20.60;;;;;;4967740;28;19952;-80
2022/04/20 09:53:33;;;;;;;;;;;32.70;20.80;;;;;;4965858;28;20427;-80
2022/04/20 09:56:13;;;;;;;;;;;32.70;21.00;;;;;;4969257;28;19992;-79
2022/04/20 09:58:39;;;;;;;;;;;32.80;21.90;;;;;;4957890;28;19925;-80
2022/04/20 10:01:06;;;;;;;;;;;33.10;20.60;;;;;;4970921;28;20289;-80
2022/04/20 10:03:32;;;;;;;;;;;33.20;20.10;;;;;;4954955;28;19968;-79
2022/04/20 10:05:58;;;;;;;;;;;33.30;21.60;;;;;;4945908;28;19940;-78
2022/04/20 10:08:24;;;;;;;;;;;33.20;19.20;;;;;;4964512;28;19925;-80
2022/04/20 10:10:51;;;;;;;;;;;32.90;22.80;;;;;;4989521;28;20005;-81
2022/04/20 10:13:17;;;;;;;;;;;33.70;22.70;;;;;;4991194;28;20389;-77
2022/04/20 10:18:29;;;;;;;;;;;33.90;21.00;;;;;;4978605;28;19941;-81
2022/04/20 10:20:56;;;;;;;;;;;33.60;20.60;;;;;;4980389;28;19918;-80
2022/04/20 10:23:22;;;;;;;;;;;33.70;21.40;;;;;;4977363;28;19917;-79
2022/04/20 10:25:48;;;;;;;;;;;33.50;20.10;;;;;;4973658;28;19921;-79
2022/04/20 10:28:17;;;;;;;;;;;33.40;20.70;;;;;;5012708;28;19921;-77
2022/04/20 10:30:42;;;;;;;;;;;33.40;20.10;;;;;;5010360;28;19916;-78
2022/04/20 10:33:09;;;;;;;;;;;33.30;19.80;;;;;;5051318;28;19916;-79
2022/04/20 10:35:54;;;;;;;;;;;33.50;19.60;;;;;;5044460;28;20658;-80
2022/04/20 10:38:20;;;;;;;;;;;33.10;19.50;;;;;;4992276;28;20005;-80
2022/04/20 10:40:54;;;;;;;;;;;33.00;19.50;;;;;;5052721;28;19972;-80
2022/04/20 10:43:20;;;;;;;;;;;32.90;19.50;;;;;;5040228;28;20434;-76
2022/04/20 10:46:01;;;;;;;;;;;32.80;19.70;;;;;;4964574;28;19920;-77
2022/04/20 10:48:26;;;;;;;;;;;33.10;19.30;;;;;;4995902;28;20458;-77
2022/04/20 10:51:11;;;;;;;;;;;33.30;19.20;;;;;;4988935;28;19911;-79
2022/04/20 10:53:37;;;;;;;;;;;33.00;19.00;;;;;;4942034;28;19946;-79
2022/04/20 10:56:03;;;;;;;;;;;33.00;19.20;;;;;;4942067;28;20015;-79
2022/04/20 10:58:28;;;;;;;;;;;32.60;19.60;;;;;;4960177;28;19925;-82
2022/04/20 11:01:07;;;;;;;;;;;32.90;19.50;;;;;;4953247;28;19910;-79
2022/04/20 11:03:51;;;;;;;;;;;32.70;19.20;;;;;;4955046;28;19930;-80
2022/04/20 11:06:16;;;;;;;;;;;32.50;19.20;;;;;;4956928;28;19914;-80
2022/04/20 11:08:42;;;;;;;;;;;32.40;19.40;;;;;;4950841;29;20293;-79
2022/04/20 11:19:49;;;;;;;;;;;28.30;21.80;;;;;;4970517;28;19920;-77
2022/04/20 11:22:15;;;;;;;;;;;27.40;22.50;;;;;;4969012;28;20364;-78
2022/04/20 11:24:40;;;;;;;;;;;26.70;23.00;;;;;;4970429;28;19964;-79
2022/04/20 11:27:06;;;;;;;;;;;26.50;23.10;;;;;;4970079;28;19919;-77
2022/04/20 11:29:32;;;;;;;;;;;26.30;23.60;;;;;;4964945;28;20357;-79
2022/04/20 11:32:02;;;;;;;;;;;26.20;23.60;;;;;;4951163;28;19973;-79
2022/04/20 11:34:31;;;;;;;;;;;25.80;23.90;;;;;;4950996;28;19976;-79
2022/04/20 11:36:58;;;;;;;;;;;25.60;24.40;;;;;;4951069;28;19922;-78
2022/04/20 11:39:24;;;;;;;;;;;25.40;24.50;;;;;;4969234;28;19914;-79
2022/04/20 11:41:51;;;;;;;;;;;25.30;24.60;;;;;;4964382;28;19915;-79
2022/04/20 11:44:24;;;;;;;;;;;25.20;25.10;;;;;;4951859;28;20333;-80
2022/04/20 11:46:49;;;;;;;;;;;24.50;25.00;;;;;;4949946;29;19914;-79
2022/04/20 11:49:15;;;;;;;;;;;24.10;25.80;;;;;;4950644;28;20368;-80
2022/04/20 11:52:06;;;;;;;;;;;23.80;26.10;;;;;;4952463;28;20364;-81
2022/04/20 11:54:32;;;;;;;;;;;24.00;26.60;;;;;;4952584;28;20377;-81
2022/04/20 11:56:58;;;;;;;;;;;23.80;25.80;;;;;;4963464;28;19918;-80
2022/04/20 11:59:28;;;;;;;;;;;23.60;25.90;;;;;;4936251;28;19919;-81
2022/04/20 12:01:54;;;;;;;;;;;23.20;25.80;;;;;;4931183;28;19915;-82
2022/04/20 12:04:21;;;;;;;;;;;23.00;25.50;;;;;;4940895;29;19914;-81
2022/04/20 12:06:46;;;;;;;;;;;23.10;26.50;;;;;;4952365;28;19926;-78
2022/04/20 12:09:12;;;;;;;;;;;23.10;25.90;;;;;;4952200;29;19911;-79
2022/04/20 12:11:39;;;;;;;;;;;23.00;26.00;;;;;;4952100;28;19957;-81
2022/04/20 12:14:04;;;;;;;;;;;23.00;26.10;;;;;;4951328;29;19918;-79
2022/04/20 12:16:33;;;;;;;;;;;23.00;25.90;;;;;;4967708;28;19915;-81
2022/04/20 12:18:59;;;;;;;;;;;22.90;26.00;;;;;;4976656;28;19953;-79
2022/04/20 12:21:34;;;;;;;;;;;22.70;26.00;;;;;;4960601;28;19915;-81
2022/04/20 12:24:00;;;;;;;;;;;22.60;26.30;;;;;;4961208;28;20472;-80
2022/04/20 12:26:30;;;;;;;;;;;22.40;26.10;;;;;;4967525;28;19918;-80
2022/04/20 12:28:59;;;;;;;;;;;22.50;26.50;;;;;;4966745;28;19914;-79
2022/04/20 12:31:25;;;;;;;;;;;22.40;26.20;;;;;;4969488;28;20285;-79
2022/04/20 12:34:00;;;;;;;;;;;22.30;26.40;;;;;;4958470;28;19919;-81
2022/04/20 12:36:26;;;;;;;;;;;22.30;26.30;;;;;;4965492;28;19919;-79
2022/04/20 12:38:51;;;;;;;;;;;22.30;26.30;;;;;;4966875;28;19982;-81
2022/04/20 12:41:36;;;;;;;;;;;22.30;26.60;;;;;;4982523;28;19968;-78
2022/04/20 12:44:21;;;;;;;;;;;22.30;26.20;;;;;;4998241;28;19917;-80
2022/04/20 12:46:47;;;;;;;;;;;22.00;26.50;;;;;;4961290;28;19918;-81
2022/04/20 12:49:21;;;;;;;;;;;21.90;26.40;;;;;;5018923;28;19927;-81
2022/04/20 12:51:48;;;;;;;;;;;21.90;26.40;;;;;;4969219;28;20370;-80
2022/04/20 12:54:24;;;;;;;;;;;21.90;26.30;;;;;;4999342;28;19917;-81
2022/04/20 13:02:18;;;;;;;;;;;21.90;26.30;;;;;;4976273;28;20240;-82
2022/04/20 13:04:47;;;;;;;;;;;21.90;26.70;;;;;;4976084;28;19914;-81
2022/04/20 13:07:12;;;;;;;;;;;21.80;26.80;;;;;;4963640;28;19914;-80
2022/04/20 13:09:38;;;;;;;;;;;21.80;26.80;;;;;;4967972;28;19997;-80
2022/04/20 13:12:04;;;;;;;;;;;21.70;26.90;;;;;;4958877;29;19940;-80
2022/04/20 13:14:31;;;;;;;;;;;21.80;27.30;;;;;;4951060;28;19921;-79
2022/04/20 13:16:57;;;;;;;;;;;22.00;27.60;;;;;;4962897;28;19918;-79
2022/04/20 13:19:22;;;;;;;;;;;21.90;27.30;;;;;;4970623;28;19918;-79
2022/04/20 13:21:48;;;;;;;;;;;21.80;27.60;;;;;;4964398;28;19986;-80
2022/04/20 13:27:53;;;;;;;;;;;21.80;27.80;;;;;;4971827;28;19917;-79
2022/04/20 13:29:44;;;;;;;;;;;21.80;27.30;;;;;;4957117;28;19964;-79
2022/04/20 13:32:10;;;;;;;;;;;21.60;27.10;;;;;;4951457;28;19973;-80
2022/04/20 13:34:35;;;;;;;;;;;21.70;27.40;;;;;;4953117;28;19965;-80
2022/04/20 13:37:01;;;;;;;;;;;21.60;27.20;;;;;;4953350;28;19922;-78
2022/04/20 13:39:26;;;;;;;;;;;21.70;27.20;;;;;;4954532;28;20048;-80
2022/04/20 13:41:52;;;;;;;;;;;21.70;27.60;;;;;;4970180;28;20263;-80
2022/04/20 13:44:18;;;;;;;;;;;21.60;27.30;;;;;;4962201;28;19919;-80
2022/04/20 13:46:43;;;;;;;;;;;21.60;27.40;;;;;;4952638;29;19917;-81
2022/04/20 13:49:09;;;;;;;;;;;21.50;27.50;;;;;;4951436;28;19915;-81
2022/04/20 13:51:34;;;;;;;;;;;21.70;27.50;;;;;;4971210;28;20010;-80
2022/04/20 13:54:01;;;;;;;;;;;21.80;27.60;;;;;;4961732;28;19946;-81
2022/04/20 13:56:27;;;;;;;;;;;21.80;27.60;;;;;;4951467;29;19918;-78
2022/04/20 13:58:52;;;;;;;;;;;21.80;27.50;;;;;;4950261;28;19922;-80
2022/04/20 14:01:20;;;;;;;;;;;21.70;27.70;;;;;;4951549;28;20386;-79
2022/04/20 14:03:46;;;;;;;;;;;21.60;27.30;;;;;;4966968;28;19944;-79
2022/04/20 14:06:12;;;;;;;;;;;21.50;27.40;;;;;;4972866;28;20009;-78
2022/04/20 14:08:37;;;;;;;;;;;21.50;27.20;;;;;;4963701;28;19950;-79
2022/04/20 14:11:03;;;;;;;;;;;21.60;27.20;;;;;;4996202;28;19944;-80
2022/04/20 14:13:28;;;;;;;;;;;21.70;27.60;;;;;;4977268;28;19922;-79
2022/04/20 14:15:54;;;;;;;;;;;21.50;27.30;;;;;;4988328;28;19914;-78
2022/04/20 14:18:19;;;;;;;;;;;21.50;27.30;;;;;;4962353;28;19948;-78
2022/04/20 14:20:46;;;;;;;;;;;21.50;27.50;;;;;;4964522;28;19922;-79
2022/04/20 14:23:11;;;;;;;;;;;21.50;27.70;;;;;;4974373;28;19953;-79
2022/04/20 14:33:49;;;;;;;;;;;21.40;27.10;;;;;;4947180;29;20321;-80
2022/04/20 14:36:16;;;;;;;;;;;21.40;27.10;;;;;;4960395;28;21921;-79
2022/04/20 14:38:41;;;;;;;;;;;21.30;27.20;;;;;;5015238;28;19923;-79
2022/04/20 14:41:07;;;;;;;;;;;21.40;27.40;;;;;;4987206;28;19915;-80
2022/04/20 14:43:33;;;;;;;;;;;21.30;27.50;;;;;;5047850;28;19908;-79
2022/04/20 14:45:58;;;;;;;;;;;21.50;27.60;;;;;;5010439;28;20009;-76
2022/04/20 14:48:24;;;;;;;;;;;21.40;27.90;;;;;;4960179;28;19910;-79
2022/04/20 14:50:50;;;;;;;;;;;21.40;27.40;;;;;;4974043;28;19915;-81
2022/04/20 14:53:15;;;;;;;;;;;21.40;27.70;;;;;;4976633;28;19923;-79
2022/04/20 14:55:41;;;;;;;;;;;21.30;26.90;;;;;;4956803;28;19967;-80
2022/04/20 14:58:06;;;;;;;;;;;21.40;27.50;;;;;;4956228;28;19922;-80
2022/04/20 15:00:32;;;;;;;;;;;21.30;27.30;;;;;;4956055;28;19921;-79
2022/04/20 15:02:58;;;;;;;;;;;21.50;27.60;;;;;;4959995;28;19917;-78